createdAt,value
2022-09-28T00:01:23.778Z,98.67
2022-09-28T00:03:59.970Z,99.11
2022-09-28T00:06:30.516Z,98.12
2022-09-28T00:08:58.783Z,99.22
2022-09-28T00:11:28.262Z,99.92
2022-09-28T00:14:03.673Z,100.00
2022-09-28T00:16:36.281Z,99.71
2022-09-28T00:19:05.283Z,100.00
2022-09-28T00:21:37.239Z,100.00
2022-09-28T00:24:14.955Z,100.00
2022-09-28T00:26:49.576Z,100.00
2022-09-28T00:29:22.932Z,100.00
2022-09-28T00:32:10.087Z,100.00
2022-09-28T00:34:45.984Z,100.00
2022-09-28T00:37:15.643Z,100.00
2022-09-28T00:39:44.031Z,100.00
2022-09-28T00:42:42.860Z,100.00
2022-09-28T00:45:11.231Z,100.00
2022-09-28T00:47:50.931Z,100.00
2022-09-28T00:50:37.078Z,100.00
2022-09-28T00:53:21.563Z,100.00
2022-09-28T00:55:54.971Z,100.00
2022-09-28T00:58:34.279Z,100.00
2022-09-28T01:01:02.414Z,100.00
2022-09-28T01:03:30.345Z,100.00
2022-09-28T01:06:02.349Z,100.00
2022-09-28T01:08:33.182Z,100.00
2022-09-28T01:11:01.429Z,99.47
2022-09-28T01:13:31.585Z,98.90
2022-09-28T01:16:28.758Z,98.93
2022-09-28T01:19:38.024Z,98.69
2022-09-28T01:22:21.118Z,98.56
2022-09-28T01:25:06.858Z,98.13
2022-09-28T01:27:49.381Z,98.04
2022-09-28T01:30:21.293Z,98.13
2022-09-28T01:33:08.578Z,96.87
2022-09-28T01:36:05.943Z,97.22
2022-09-28T01:38:49.530Z,96.79
2022-09-28T01:41:19.180Z,96.01
2022-09-28T01:43:54.801Z,96.41
2022-09-28T01:46:28.170Z,95.93
2022-09-28T01:48:58.879Z,95.93
2022-09-28T01:51:55.578Z,96.74
2022-09-28T01:54:34.928Z,96.65
2022-09-28T01:58:01.942Z,97.68
2022-09-28T02:00:30.595Z,97.43
2022-09-28T02:03:14.278Z,98.06
2022-09-28T02:06:08.687Z,97.65
2022-09-28T02:08:50.969Z,97.23
2022-09-28T02:11:22.426Z,97.67
2022-09-28T02:14:07.410Z,97.23
2022-09-28T02:16:48.682Z,96.15
2022-09-28T02:19:22.054Z,95.95
2022-09-28T02:22:28.203Z,95.16
2022-09-28T02:25:09.434Z,94.90
2022-09-28T02:27:56.336Z,95.21
2022-09-28T02:30:24.309Z,94.78
2022-09-28T02:32:57.156Z,94.61
2022-09-28T02:35:24.773Z,94.76
2022-09-28T02:37:54.897Z,94.77
2022-09-28T02:40:35.099Z,95.17
2022-09-28T02:43:26.930Z,94.69
2022-09-28T02:46:28.778Z,94.99
2022-09-28T02:49:33.668Z,94.84
2022-09-28T02:52:30.667Z,95.06
2022-09-28T02:55:19.521Z,94.53
2022-09-28T02:58:15.129Z,95.04
2022-09-28T03:01:18.285Z,94.97
2022-09-28T03:03:55.576Z,94.32
2022-09-28T03:06:44.427Z,93.69
2022-09-28T03:09:18.086Z,93.60
2022-09-28T03:12:18.231Z,93.62
2022-09-28T03:14:46.374Z,93.74
2022-09-28T03:17:14.491Z,93.48
2022-09-28T03:19:42.054Z,93.54
2022-09-28T03:22:10.953Z,94.00
2022-09-28T03:24:39.394Z,93.91
2022-09-28T03:27:08.352Z,94.15
2022-09-28T03:29:36.011Z,94.40
2022-09-28T03:32:06.758Z,93.77
2022-09-28T03:34:35.636Z,94.10
2022-09-28T03:37:03.262Z,93.54
2022-09-28T03:39:31.178Z,93.24
2022-09-28T03:42:01.366Z,93.50
2022-09-28T03:44:30.508Z,93.37
2022-09-28T03:46:58.288Z,94.22
2022-09-28T03:49:25.967Z,93.93
2022-09-28T03:51:53.415Z,94.88
2022-09-28T03:54:21.232Z,94.56
2022-09-28T03:56:48.762Z,94.78
2022-09-28T03:59:18.102Z,93.91
2022-09-28T04:01:48.588Z,94.48
2022-09-28T04:04:16.378Z,94.28
2022-09-28T04:06:44.173Z,93.67
2022-09-28T04:09:12.349Z,94.54
2022-09-28T04:12:02.325Z,94.54
2022-09-28T04:14:27.808Z,95.25
2022-09-28T04:16:55.712Z,95.58
2022-09-28T04:19:25.528Z,95.42
2022-09-28T04:22:19.576Z,94.41
2022-09-28T04:24:47.093Z,94.21
2022-09-28T04:27:33.278Z,94.95
2022-09-28T04:30:03.770Z,95.41
2022-09-28T04:32:33.732Z,96.16
2022-09-28T04:35:01.435Z,96.47
2022-09-28T04:37:31.275Z,97.14
2022-09-28T04:39:59.311Z,97.42
2022-09-28T04:42:27.250Z,97.62
2022-09-28T04:44:57.669Z,98.05
2022-09-28T04:47:25.664Z,97.91
2022-09-28T04:50:19.520Z,98.33
2022-09-28T04:53:05.574Z,99.00
2022-09-28T04:55:33.471Z,99.33
2022-09-28T04:58:04.265Z,99.93
2022-09-28T05:00:35.360Z,100.00
2022-09-28T05:03:13.319Z,100.00
2022-09-28T05:06:13.866Z,99.23
2022-09-28T05:08:46.907Z,100.00
2022-09-28T05:11:16.502Z,100.00
2022-09-28T05:13:45.951Z,100.00
2022-09-28T05:16:16.923Z,97.69
2022-09-28T05:19:16.914Z,97.28
2022-09-28T05:21:46.855Z,97.71
2022-09-28T05:24:15.017Z,97.28
2022-09-28T05:26:46.500Z,97.05
2022-09-28T05:29:15.103Z,97.49
2022-09-28T05:32:01.973Z,96.60
2022-09-28T05:34:32.117Z,96.05
2022-09-28T05:36:59.636Z,96.39
2022-09-28T05:39:27.479Z,95.90
2022-09-28T05:41:57.879Z,95.36
2022-09-28T05:44:25.955Z,95.54
2022-09-28T05:46:55.473Z,95.55
2022-09-28T05:49:23.836Z,94.79
2022-09-28T05:51:51.277Z,94.58
2022-09-28T05:54:19.238Z,95.05
2022-09-28T05:56:47.695Z,94.83
2022-09-28T05:59:16.673Z,93.67
2022-09-28T06:01:44.921Z,93.14
2022-09-28T06:04:12.942Z,92.59
2022-09-28T06:06:43.213Z,92.75
2022-09-28T06:09:11.264Z,93.27
2022-09-28T06:11:38.749Z,94.06
2022-09-28T06:14:13.950Z,93.88
2022-09-28T06:16:43.917Z,93.56
2022-09-28T06:19:13.004Z,93.76
2022-09-28T06:22:15.989Z,93.57
2022-09-28T06:24:49.999Z,92.41
2022-09-28T06:27:17.937Z,92.80
2022-09-28T06:29:46.228Z,89.42
2022-09-28T06:32:14.520Z,87.33
2022-09-28T06:34:44.289Z,85.81
2022-09-28T06:37:11.863Z,84.23
2022-09-28T06:39:39.378Z,84.52
2022-09-28T06:42:07.176Z,85.61
2022-09-28T06:45:04.589Z,85.76
2022-09-28T06:48:00.077Z,85.56
2022-09-28T06:50:40.262Z,84.38
2022-09-28T06:53:29.432Z,84.97
2022-09-28T06:56:18.088Z,84.56
2022-09-28T06:58:45.824Z,84.32
2022-09-28T07:01:13.446Z,84.12
2022-09-28T07:03:56.733Z,83.40
2022-09-28T07:06:48.089Z,82.71
2022-09-28T07:09:38.171Z,81.86
2022-09-28T07:12:27.547Z,82.89
2022-09-28T07:15:04.984Z,83.53
2022-09-28T07:17:42.068Z,85.23
2022-09-28T07:20:19.088Z,86.30
2022-09-28T07:23:00.716Z,87.32
2022-09-28T07:25:55.292Z,85.80
2022-09-28T07:28:41.505Z,86.73
2022-09-28T07:31:35.629Z,84.39
2022-09-28T07:34:23.167Z,86.20
2022-09-28T07:37:14.654Z,86.07
2022-09-28T07:40:01.042Z,84.97
2022-09-28T07:42:31.532Z,83.67
2022-09-28T07:45:00.283Z,84.64
2022-09-28T07:47:34.624Z,85.48
2022-09-28T07:50:29.917Z,84.89
2022-09-28T07:53:28.540Z,84.94
2022-09-28T07:56:14.065Z,83.86
2022-09-28T07:59:00.380Z,84.09
2022-09-28T08:01:40.086Z,82.93
2022-09-28T08:04:10.416Z,83.00
2022-09-28T08:06:40.616Z,83.67
2022-09-28T08:09:10.845Z,83.39
2022-09-28T08:12:18.437Z,83.92
2022-09-28T08:15:10.453Z,84.38
2022-09-28T08:17:49.830Z,84.45
2022-09-28T08:20:39.088Z,83.55
2022-09-28T08:23:11.617Z,82.33
2022-09-28T08:25:52.617Z,80.96
2022-09-28T08:28:22.669Z,79.92
2022-09-28T08:30:54.364Z,81.16
2022-09-28T08:33:28.469Z,81.37
2022-09-28T08:36:14.525Z,82.00
2022-09-28T08:39:01.204Z,81.05
2022-09-28T08:42:00.153Z,80.58
2022-09-28T08:44:49.898Z,80.27
2022-09-28T08:48:31.598Z,79.46
2022-09-28T08:51:41.862Z,78.56
2022-09-28T08:54:54.925Z,77.20
2022-09-28T08:57:55.207Z,77.92
2022-09-28T09:00:52.590Z,78.30
2022-09-28T09:03:33.545Z,77.57
2022-09-28T09:06:41.490Z,77.03
2022-09-28T09:09:42.580Z,76.41
2022-09-28T09:15:33.030Z,74.98
2022-09-28T09:18:48.400Z,75.07
2022-09-28T09:21:46.729Z,74.36
2022-09-28T09:24:40.988Z,72.46
2022-09-28T09:27:48.711Z,70.70
2022-09-28T09:30:22.099Z,71.61
2022-09-28T09:33:04.805Z,71.54
2022-09-28T09:36:28.154Z,71.07
2022-09-28T09:39:32.989Z,69.83
2022-09-28T09:43:00.279Z,71.09
2022-09-28T09:46:28.979Z,70.63
2022-09-28T09:49:29.153Z,68.73
2022-09-28T09:52:17.750Z,68.36
2022-09-28T09:55:19.349Z,68.07
2022-09-28T09:58:30.498Z,68.39
2022-09-28T10:01:13.710Z,68.31
2022-09-28T10:04:00.955Z,68.37
2022-09-28T10:06:35.392Z,67.09
2022-09-28T10:09:20.677Z,66.54
2022-09-28T10:11:52.120Z,66.91
2022-09-28T10:14:24.120Z,65.74
2022-09-28T10:17:03.955Z,66.60
2022-09-28T10:20:04.873Z,66.01
2022-09-28T10:22:33.077Z,66.22
2022-09-28T10:25:09.891Z,67.28
2022-09-28T10:27:46.735Z,67.69
2022-09-28T10:30:23.307Z,66.91
2022-09-28T10:32:55.548Z,68.04
2022-09-28T10:35:30.983Z,68.38
2022-09-28T10:38:12.485Z,67.88
2022-09-28T10:40:47.464Z,68.35
2022-09-28T10:43:38.558Z,67.46
2022-09-28T10:46:23.535Z,68.22
2022-09-28T10:49:18.690Z,67.69
2022-09-28T10:51:57.012Z,67.69
2022-09-28T10:54:30.993Z,66.88
2022-09-28T10:57:01.150Z,66.68
2022-09-28T10:59:42.567Z,66.88
2022-09-28T11:02:36.619Z,66.31
2022-09-28T11:05:30.119Z,65.72
2022-09-28T11:08:06.595Z,66.49
2022-09-28T11:10:42.838Z,64.95
2022-09-28T11:13:14.595Z,64.13
2022-09-28T11:15:47.526Z,64.65
2022-09-28T11:18:32.460Z,65.19
2022-09-28T11:21:22.211Z,65.41
2022-09-28T11:24:20.057Z,64.80
2022-09-28T11:26:58.779Z,64.40
2022-09-28T11:29:46.905Z,64.44
2022-09-28T11:32:18.606Z,64.44
2022-09-28T11:35:07.028Z,64.66
2022-09-28T11:38:11.651Z,66.30
2022-09-28T11:41:30.186Z,65.00
2022-09-28T11:44:37.921Z,65.95
2022-09-28T11:47:39.582Z,65.69
2022-09-28T11:50:27.172Z,65.71
2022-09-28T11:53:00.517Z,65.06
2022-09-28T11:56:09.182Z,63.94
2022-09-28T11:58:49.180Z,63.96
2022-09-28T12:01:31.286Z,63.71
2022-09-28T12:04:48.826Z,62.41
2022-09-28T12:07:37.289Z,62.39
2022-09-28T12:10:36.061Z,61.87
2022-09-28T12:13:35.471Z,60.93
2022-09-28T12:16:53.442Z,61.43
2022-09-28T12:19:36.692Z,60.49
2022-09-28T12:22:25.337Z,61.06
2022-09-28T12:24:55.548Z,60.53
2022-09-28T12:27:38.665Z,59.59
2022-09-28T12:30:16.280Z,58.95
2022-09-28T12:33:16.256Z,59.83
2022-09-28T12:36:21.330Z,58.36
2022-09-28T12:39:19.163Z,57.52
2022-09-28T12:42:29.186Z,57.52
2022-09-28T12:45:08.941Z,57.47
2022-09-28T12:48:08.153Z,57.37
2022-09-28T12:51:09.810Z,56.28
2022-09-28T12:53:55.397Z,58.00
2022-09-28T12:56:44.453Z,56.99
2022-09-28T12:59:36.841Z,56.00
2022-09-28T13:02:33.665Z,54.43
2022-09-28T13:05:22.630Z,54.73
2022-09-28T13:08:08.682Z,54.52
2022-09-28T13:11:07.549Z,53.40
2022-09-28T13:14:06.341Z,52.31
2022-09-28T13:16:50.363Z,50.68
2022-09-28T13:19:53.706Z,51.58
2022-09-28T13:22:57.672Z,51.17
2022-09-28T13:25:31.209Z,50.70
2022-09-28T13:28:05.746Z,49.18
2022-09-28T13:30:36.614Z,48.64
2022-09-28T13:33:07.937Z,49.12
2022-09-28T13:35:35.531Z,47.86
2022-09-28T13:38:18.490Z,48.13
2022-09-28T13:41:18.684Z,47.59
2022-09-28T13:44:13.452Z,46.07
2022-09-28T13:47:20.541Z,46.39
2022-09-28T13:50:19.932Z,45.02
2022-09-28T13:53:02.146Z,45.18
2022-09-28T13:55:50.571Z,45.22
2022-09-28T13:58:36.488Z,45.84
2022-09-28T14:01:18.008Z,45.14
2022-09-28T14:04:20.319Z,46.18
2022-09-28T14:07:16.523Z,45.90
2022-09-28T14:09:48.527Z,45.30
2022-09-28T14:12:34.021Z,46.05
2022-09-28T14:15:03.057Z,46.81
2022-09-28T14:17:53.081Z,47.95
2022-09-28T14:20:25.387Z,49.07
2022-09-28T14:23:13.906Z,49.87
2022-09-28T14:25:59.824Z,50.76
2022-09-28T14:29:02.018Z,52.12
2022-09-28T14:31:30.927Z,54.02
2022-09-28T14:34:02.731Z,54.53
2022-09-28T14:37:06.612Z,55.99
2022-09-28T14:39:56.502Z,57.53
2022-09-28T14:42:26.129Z,58.60
2022-09-28T14:45:06.286Z,59.80
2022-09-28T14:48:12.428Z,61.77
2022-09-28T14:50:40.511Z,62.02
2022-09-28T14:53:19.616Z,62.57
2022-09-28T14:55:51.886Z,62.90
2022-09-28T14:58:27.736Z,63.72
2022-09-28T15:01:06.230Z,64.22
2022-09-28T15:03:38.338Z,64.25
2022-09-28T15:06:06.187Z,65.00
2022-09-28T15:08:38.995Z,65.45
2022-09-28T15:11:16.839Z,66.31
2022-09-28T15:13:44.388Z,67.29
2022-09-28T15:16:16.046Z,68.07
2022-09-28T15:19:01.618Z,68.48
2022-09-28T15:21:42.625Z,68.75
2022-09-28T15:24:32.524Z,69.65
2022-09-28T15:27:13.819Z,69.75
2022-09-28T15:29:41.472Z,70.21
2022-09-28T15:32:24.898Z,70.94
2022-09-28T15:34:52.988Z,71.75
2022-09-28T15:37:30.146Z,72.54
2022-09-28T15:40:00.230Z,73.16
2022-09-28T15:42:28.580Z,73.52
2022-09-28T15:45:10.277Z,73.96
2022-09-28T15:47:40.160Z,74.43
2022-09-28T15:50:26.741Z,75.57
2022-09-28T15:52:56.674Z,76.17
2022-09-28T15:55:34.632Z,76.99
2022-09-28T15:58:21.213Z,77.92
2022-09-28T16:01:20.677Z,78.65
2022-09-28T16:03:48.627Z,79.07
2022-09-28T16:06:16.476Z,79.78
2022-09-28T16:08:45.942Z,80.59
2022-09-28T16:11:31.467Z,81.77
2022-09-28T16:14:18.333Z,82.40
2022-09-28T16:16:52.273Z,83.79
2022-09-28T16:19:30.492Z,83.45
2022-09-28T16:22:02.187Z,84.66
2022-09-28T16:24:36.895Z,84.11
2022-09-28T16:27:26.273Z,85.69
2022-09-28T16:30:12.810Z,86.73
2022-09-28T16:32:58.548Z,88.60
2022-09-28T16:35:31.422Z,88.90
2022-09-28T16:38:14.784Z,89.01
2022-09-28T16:40:51.486Z,89.15
2022-09-28T16:43:29.309Z,90.19
2022-09-28T16:46:00.955Z,92.97
2022-09-28T16:48:32.250Z,90.25
2022-09-28T16:51:00.653Z,92.17
2022-09-28T16:53:46.822Z,92.70
2022-09-28T16:56:14.712Z,91.90
2022-09-28T16:58:42.510Z,95.24
2022-09-28T17:01:12.490Z,93.85
2022-09-28T17:03:46.697Z,92.26
2022-09-28T17:06:15.452Z,93.50
2022-09-28T17:08:43.445Z,96.05
2022-09-28T17:11:22.830Z,94.06
2022-09-28T17:13:51.936Z,93.88
2022-09-28T17:16:49.277Z,94.20
2022-09-28T17:19:25.609Z,96.07
2022-09-28T17:21:53.434Z,95.66
2022-09-28T17:24:21.417Z,95.28
2022-09-28T17:26:51.722Z,96.06
2022-09-28T17:29:19.839Z,94.35
2022-09-28T17:31:48.235Z,93.69
2022-09-28T17:34:16.730Z,93.20
2022-09-28T17:36:45.050Z,93.07
2022-09-28T17:39:15.130Z,93.71
2022-09-28T17:41:42.953Z,93.54
2022-09-28T17:44:10.855Z,93.05
2022-09-28T17:46:45.942Z,93.57
2022-09-28T17:49:14.273Z,93.31
2022-09-28T17:51:42.303Z,92.99
2022-09-28T17:54:10.336Z,93.56
2022-09-28T17:56:37.827Z,93.18
2022-09-28T17:59:10.175Z,93.30
2022-09-28T18:01:40.505Z,92.67
2022-09-28T18:04:23.085Z,92.77
2022-09-28T18:06:59.337Z,93.21
2022-09-28T18:09:27.093Z,93.35
2022-09-28T18:12:01.066Z,93.20
2022-09-28T18:14:30.144Z,92.77
2022-09-28T18:16:57.662Z,91.64
2022-09-28T18:19:31.179Z,91.55
2022-09-28T18:22:01.594Z,90.39
2022-09-28T18:24:29.526Z,90.29
2022-09-28T18:26:57.010Z,91.45
2022-09-28T18:29:24.969Z,90.83
2022-09-28T18:31:52.535Z,90.90
2022-09-28T18:34:20.164Z,90.98
2022-09-28T18:36:48.415Z,90.08
2022-09-28T18:39:15.936Z,90.31
2022-09-28T18:41:43.451Z,90.19
2022-09-28T18:44:11.272Z,90.95
2022-09-28T18:46:39.406Z,90.71
2022-09-28T18:49:08.395Z,90.69
2022-09-28T18:51:36.470Z,90.75
2022-09-28T18:54:07.717Z,91.59
2022-09-28T18:56:37.981Z,92.07
2022-09-28T18:59:11.888Z,92.69
2022-09-28T19:01:41.869Z,92.76
2022-09-28T19:04:16.065Z,92.54
2022-09-28T19:06:52.965Z,92.39
2022-09-28T19:09:24.719Z,92.65
2022-09-28T19:11:53.625Z,92.67
2022-09-28T19:14:23.595Z,93.11
2022-09-28T19:16:52.003Z,92.68
2022-09-28T19:19:23.555Z,92.89
2022-09-28T19:21:54.949Z,92.75
2022-09-28T19:24:26.524Z,92.80
2022-09-28T19:26:56.617Z,92.59
2022-09-28T19:29:24.452Z,92.74
2022-09-28T19:31:52.144Z,92.88
2022-09-28T19:34:20.098Z,92.43
2022-09-28T19:36:47.657Z,92.39
2022-09-28T19:39:15.826Z,92.33
2022-09-28T19:41:51.201Z,92.39
2022-09-28T19:44:25.369Z,92.14
2022-09-28T19:47:04.256Z,92.25
2022-09-28T19:49:36.821Z,91.92
2022-09-28T19:52:14.420Z,91.58
2022-09-28T19:54:57.543Z,91.84
2022-09-28T19:57:29.813Z,91.50
2022-09-28T20:00:05.679Z,91.66
2022-09-28T20:02:35.195Z,91.37
2022-09-28T20:05:03.131Z,91.17
2022-09-28T20:07:33.363Z,91.19
2022-09-28T20:10:01.131Z,91.17
2022-09-28T20:12:28.692Z,91.49
2022-09-28T20:14:56.438Z,91.14
2022-09-28T20:17:24.228Z,91.62
2022-09-28T20:19:51.914Z,91.45
2022-09-28T20:22:20.125Z,91.56
2022-09-28T20:24:47.981Z,91.72
2022-09-28T20:27:15.676Z,92.06
2022-09-28T20:29:43.287Z,91.89
2022-09-28T20:32:12.262Z,91.52
2022-09-28T20:34:39.813Z,91.65
2022-09-28T20:37:07.349Z,91.73
2022-09-28T20:39:35.079Z,91.67
2022-09-28T20:42:02.888Z,91.99
2022-09-28T20:44:31.280Z,92.14
2022-09-28T20:46:59.621Z,92.36
2022-09-28T20:49:28.190Z,92.77
2022-09-28T20:51:55.873Z,92.89
2022-09-28T20:54:23.612Z,93.25
2022-09-28T20:56:51.492Z,93.76
2022-09-28T20:59:20.351Z,94.31
2022-09-28T21:01:48.281Z,94.79
2022-09-28T21:04:15.928Z,94.96
2022-09-28T21:06:44.567Z,95.40
2022-09-28T21:09:12.606Z,95.50
2022-09-28T21:11:41.692Z,95.74
2022-09-28T21:14:10.315Z,95.72
2022-09-28T21:16:39.144Z,95.47
2022-09-28T21:19:07.029Z,95.14
2022-09-28T21:21:34.790Z,93.92
2022-09-28T21:24:02.887Z,92.77
2022-09-28T21:26:32.084Z,91.61
2022-09-28T21:29:05.528Z,91.59
2022-09-28T21:31:42.143Z,91.30
2022-09-28T21:34:20.171Z,90.69
2022-09-28T21:36:51.615Z,90.70
2022-09-28T21:39:20.262Z,90.01
2022-09-28T21:41:48.299Z,89.50
2022-09-28T21:44:16.168Z,89.19
2022-09-28T21:46:43.691Z,87.21
2022-09-28T21:49:12.612Z,84.51
2022-09-28T21:51:41.249Z,82.88
2022-09-28T21:54:08.911Z,83.35
2022-09-28T21:56:36.396Z,81.86
2022-09-28T21:59:04.260Z,79.42
2022-09-28T22:01:32.101Z,78.91
2022-09-28T22:03:59.769Z,78.95
2022-09-28T22:06:28.282Z,78.02
2022-09-28T22:08:56.853Z,76.40
2022-09-28T22:11:28.215Z,74.63
2022-09-28T22:13:59.335Z,73.51
2022-09-28T22:16:30.400Z,72.78
2022-09-28T22:18:59.526Z,73.29
2022-09-28T22:21:35.075Z,72.90
2022-09-28T22:24:06.403Z,71.40
2022-09-28T22:26:36.747Z,70.33
2022-09-28T22:29:09.050Z,70.88
2022-09-28T22:31:39.992Z,68.67
2022-09-28T22:34:09.186Z,68.94
2022-09-28T22:36:36.814Z,68.58
2022-09-28T22:39:04.909Z,68.14
2022-09-28T22:41:33.167Z,66.96
2022-09-28T22:44:01.274Z,66.37
2022-09-28T22:46:32.136Z,65.61
2022-09-28T22:49:00.746Z,65.64
2022-09-28T22:51:30.118Z,65.61
2022-09-28T22:53:57.809Z,65.61
2022-09-28T22:56:26.319Z,64.86
2022-09-28T22:58:54.560Z,63.83
2022-09-28T23:01:26.330Z,64.38
2022-09-28T23:03:56.364Z,63.61
2022-09-28T23:06:27.834Z,62.98
2022-09-28T23:08:55.637Z,63.38
2022-09-28T23:11:23.419Z,63.44
2022-09-28T23:13:53.481Z,63.48
2022-09-28T23:16:23.621Z,62.65
2022-09-28T23:18:51.662Z,62.25
2022-09-28T23:21:22.608Z,62.40
2022-09-28T23:24:01.580Z,61.97
2022-09-28T23:26:34.354Z,61.51
2022-09-28T23:29:02.153Z,61.75
2022-09-28T23:31:33.750Z,61.12
2022-09-28T23:34:05.703Z,61.50
2022-09-28T23:36:34.491Z,61.70
2022-09-28T23:39:03.245Z,61.01
2022-09-28T23:41:30.879Z,61.17
2022-09-28T23:43:58.678Z,59.63
2022-09-28T23:46:26.262Z,59.98
2022-09-28T23:48:53.939Z,60.31
2022-09-28T23:51:21.915Z,59.78
2022-09-28T23:53:49.632Z,60.34
2022-09-28T23:56:17.191Z,59.64
2022-09-28T23:58:45.187Z,59.61
